Time;durP1;ratioP1;P1;durP2;ratioP2;P2;SDS_P1;SDS_P2;PMS_P1;PMS_P2;Temp;Humidity;BMP_temperature;BMP_pressure;BME280_temperature;BME280_humidity;BME280_pressure;Samples;Min_cycle;Max_cycle;Signal;HPM_P1;HPM_P2
2023/03/28 00:02:39;;;;;;;;;;;;;;;2.81;46.60;100051.41;5367869;32;44883;-61
2023/03/28 00:05:41;;;;;;;;;;;;;;;2.45;47.68;100052.75;5342661;32;35344;-60
2023/03/28 00:08:44;;;;;;;;;;;;;;;2.38;47.83;100061.44;5357336;32;35947;-60
2023/03/28 00:11:46;;;;;;;;;;;;;;;2.79;46.89;100067.91;5374348;32;34335;-68
2023/03/28 00:14:48;;;;;;;;;;;;;;;2.63;46.79;100073.25;5357438;32;34652;-70
2023/03/28 00:17:51;;;;;;;;;;;;;;;2.75;46.62;100080.03;5373222;32;34250;-63
2023/03/28 00:20:53;;;;;;;;;;;;;;;2.75;47.11;100076.59;5358437;32;34263;-66
2023/03/28 00:23:56;;;;;;;;;;;;;;;3.21;45.85;100080.31;5366026;32;35496;-68
2023/03/28 00:26:59;;;;;;;;;;;;;;;2.88;46.61;100089.41;5365196;32;37142;-70
2023/03/28 00:30:02;;;;;;;;;;;;;;;2.68;46.88;100100.03;5357481;32;35994;-68
2023/03/28 00:33:04;;;;;;;;;;;;;;;2.54;47.55;100098.47;5372953;32;35538;-67
2023/03/28 00:36:09;;;;;;;;;;;;;;;3.16;46.75;100097.72;5357956;32;35763;-69
2023/03/28 00:39:12;;;;;;;;;;;;;;;2.85;46.92;100115.41;5374377;32;46603;-62
2023/03/28 00:42:23;;;;;;;;;;;;;;;2.57;47.81;100125.22;5350655;32;35602;-65
2023/03/28 00:45:25;;;;;;;;;;;;;;;2.57;47.94;100130.41;5357714;32;34286;-69
2023/03/28 00:48:27;;;;;;;;;;;;;;;2.69;48.09;100122.50;5369970;32;34401;-67
2023/03/28 00:51:31;;;;;;;;;;;;;;;3.10;47.26;100126.34;5361216;32;35545;-65
2023/03/28 00:54:33;;;;;;;;;;;;;;;2.71;47.50;100145.84;5371107;32;34373;-62
2023/03/28 00:57:37;;;;;;;;;;;;;;;2.55;48.60;100146.88;5362500;32;34448;-61
2023/03/28 01:00:40;;;;;;;;;;;;;;;2.56;49.01;100159.84;5371102;32;44874;-67
2023/03/28 01:03:45;;;;;;;;;;;;;;;2.78;48.62;100154.44;5351175;32;36137;-67
2023/03/28 01:06:48;;;;;;;;;;;;;;;3.13;47.35;100160.06;5344328;32;37173;-68
2023/03/28 01:09:50;;;;;;;;;;;;;;;3.07;48.08;100160.13;5376124;32;34340;-61
2023/03/28 01:12:52;;;;;;;;;;;;;;;2.81;48.42;100164.78;5359383;32;35802;-68
2023/03/28 01:15:54;;;;;;;;;;;;;;;2.66;48.69;100173.59;5377114;32;34128;-62
2023/03/28 01:19:00;;;;;;;;;;;;;;;2.67;48.67;100178.75;5356335;32;36211;-67
2023/03/28 01:22:21;;;;;;;;;;;;;;;3.07;47.84;100174.84;5369426;32;36143;-61
2023/03/28 01:25:28;;;;;;;;;;;;;;;2.44;49.41;100170.31;5368140;32;34356;-67
2023/03/28 01:28:33;;;;;;;;;;;;;;;2.62;49.20;100170.16;5358427;32;34808;-62
2023/03/28 01:31:40;;;;;;;;;;;;;;;2.55;49.33;100171.09;5374161;32;34240;-62
2023/03/28 01:35:01;;;;;;;;;;;;;;;2.69;48.78;100164.03;5354817;32;46697;-68
2023/03/28 01:38:08;;;;;;;;;;;;;;;2.61;49.68;100178.81;5367390;32;35192;-61
2023/03/28 01:41:18;;;;;;;;;;;;;;;3.16;48.42;100188.59;5366803;32;45279;-61
2023/03/28 01:44:22;;;;;;;;;;;;;;;3.30;47.53;100196.22;5353466;32;34365;-68
2023/03/28 01:47:26;;;;;;;;;;;;;;;2.68;48.86;100190.84;5374260;32;34348;-69
2023/03/28 01:50:30;;;;;;;;;;;;;;;3.16;47.99;100205.94;5356949;32;35865;-67
2023/03/28 01:53:37;;;;;;;;;;;;;;;3.05;48.67;100211.22;5373252;32;34468;-68
2023/03/28 01:56:41;;;;;;;;;;;;;;;2.87;49.50;100208.84;5357000;32;46091;-61
2023/03/28 01:59:50;;;;;;;;;;;;;;;3.04;48.69;100208.66;5362399;32;34533;-69
2023/03/28 02:03:00;;;;;;;;;;;;;;;2.35;51.00;100201.53;5375540;32;33216;-61
2023/03/28 02:06:03;;;;;;;;;;;;;;;3.19;49.15;100213.66;5336466;32;34376;-68
2023/03/28 02:09:06;;;;;;;;;;;;;;;3.32;49.51;100219.56;5372383;32;35113;-68
2023/03/28 02:12:14;;;;;;;;;;;;;;;2.84;51.32;100224.44;5354143;32;45288;-66
2023/03/28 02:15:16;;;;;;;;;;;;;;;2.69;51.31;100226.28;5368490;32;34331;-69
2023/03/28 02:18:20;;;;;;;;;;;;;;;2.16;53.13;100212.06;5369223;32;35451;-62
2023/03/28 02:21:27;;;;;;;;;;;;;;;2.10;53.29;100222.47;5355223;32;35575;-68
2023/03/28 02:24:30;;;;;;;;;;;;;;;2.45;53.62;100229.16;5377262;32;34857;-65
2023/03/28 02:27:33;;;;;;;;;;;;;;;2.17;54.72;100237.13;5356234;32;34138;-62
2023/03/28 02:30:35;;;;;;;;;;;;;;;2.24;54.41;100209.41;5371816;32;34157;-62
2023/03/28 02:33:37;;;;;;;;;;;;;;;2.24;55.15;100229.28;5356479;32;34220;-60
2023/03/28 02:36:42;;;;;;;;;;;;;;;1.76;56.89;100241.72;5360012;32;44784;-62
2023/03/28 02:39:50;;;;;;;;;;;;;;;1.85;57.69;100239.94;5368638;32;35496;-62
2023/03/28 02:43:01;;;;;;;;;;;;;;;2.03;57.27;100249.31;5352677;32;34028;-68
2023/03/28 02:46:03;;;;;;;;;;;;;;;2.50;56.30;100242.91;5370041;32;34303;-68
2023/03/28 02:49:25;;;;;;;;;;;;;;;1.61;58.40;100256.50;5355751;32;34895;-60
2023/03/28 02:52:33;;;;;;;;;;;;;;;1.59;58.58;100241.81;5364362;32;35396;-60
2023/03/28 02:55:39;;;;;;;;;;;;;;;1.89;58.00;100259.78;5371139;32;35534;-60
2023/03/28 02:58:48;;;;;;;;;;;;;;;2.57;56.33;100257.53;5355343;32;44940;-61
2023/03/28 03:01:50;;;;;;;;;;;;;;;2.07;57.71;100269.19;5371923;32;34267;-69
2023/03/28 03:04:56;;;;;;;;;;;;;;;2.18;56.90;100267.34;5342160;32;34246;-61
2023/03/28 03:07:58;;;;;;;;;;;;;;;2.15;57.03;100271.72;5366468;32;34267;-60
2023/03/28 03:11:00;;;;;;;;;;;;;;;1.93;58.93;100264.94;5357861;32;34414;-67
2023/03/28 03:14:02;;;;;;;;;;;;;;;1.77;60.09;100279.72;5355777;32;36164;-68
2023/03/28 03:17:04;;;;;;;;;;;;;;;2.02;59.95;100283.91;5371287;32;35631;-61
2023/03/28 03:20:06;;;;;;;;;;;;;;;1.73;60.66;100298.72;5355950;32;34223;-67
2023/03/28 03:23:08;;;;;;;;;;;;;;;2.17;60.01;100291.56;5370991;32;42710;-61
2023/03/28 03:26:10;;;;;;;;;;;;;;;2.06;60.01;100301.16;5354957;32;34243;-61
2023/03/28 03:29:12;;;;;;;;;;;;;;;1.81;61.58;100310.81;5368923;32;34572;-68
2023/03/28 03:32:14;;;;;;;;;;;;;;;1.94;60.71;100313.34;5361588;32;34660;-61
2023/03/28 03:35:16;;;;;;;;;;;;;;;2.12;60.38;100313.22;5357726;32;34316;-60
2023/03/28 03:38:18;;;;;;;;;;;;;;;2.07;60.41;100317.59;5372984;32;34760;-68
2023/03/28 03:41:20;;;;;;;;;;;;;;;1.90;60.89;100323.69;5353801;32;35441;-67
2023/03/28 03:44:22;;;;;;;;;;;;;;;1.76;61.47;100341.06;5367674;32;35518;-67
2023/03/28 03:47:24;;;;;;;;;;;;;;;1.51;61.92;100347.19;5353877;32;34356;-69
2023/03/28 03:50:26;;;;;;;;;;;;;;;1.54;62.99;100347.16;5369152;32;37648;-69
2023/03/28 03:53:28;;;;;;;;;;;;;;;1.51;63.15;100350.62;5361435;32;34251;-60
2023/03/28 03:56:30;;;;;;;;;;;;;;;1.83;62.12;100352.25;5354843;32;34304;-68
2023/03/28 03:59:32;;;;;;;;;;;;;;;2.35;60.44;100347.66;5370437;32;35859;-69
2023/03/28 04:02:34;;;;;;;;;;;;;;;2.35;60.09;100326.91;5354925;32;33899;-60
2023/03/28 04:05:36;;;;;;;;;;;;;;;2.19;61.06;100361.59;5350907;32;35391;-67
2023/03/28 04:08:38;;;;;;;;;;;;;;;1.97;61.74;100363.41;5354072;32;44897;-67
2023/03/28 04:11:40;;;;;;;;;;;;;;;2.23;60.63;100344.28;5367716;32;34283;-61
2023/03/28 04:14:42;;;;;;;;;;;;;;;2.07;60.59;100365.09;5357797;32;35597;-62
2023/03/28 04:17:43;;;;;;;;;;;;;;;1.66;61.94;100367.00;5355992;32;34398;-62
2023/03/28 04:20:53;;;;;;;;;;;;;;;2.20;60.92;100367.66;5372947;32;34561;-60
2023/03/28 04:23:56;;;;;;;;;;;;;;;2.29;60.28;100375.34;5352996;32;35736;-67
2023/03/28 04:26:59;;;;;;;;;;;;;;;2.38;60.13;100375.28;5371820;32;34265;-68
2023/03/28 04:30:01;;;;;;;;;;;;;;;2.20;61.60;100378.00;5354630;32;35730;-61
2023/03/28 04:33:03;;;;;;;;;;;;;;;2.00;61.97;100391.06;5365219;32;34276;-68
2023/03/28 04:36:06;;;;;;;;;;;;;;;1.84;62.63;100387.66;5361830;32;35541;-60
2023/03/28 04:39:08;;;;;;;;;;;;;;;1.86;62.77;100391.09;5353953;32;44671;-70
2023/03/28 04:42:13;;;;;;;;;;;;;;;1.79;63.25;100407.53;5369971;32;34693;-68
2023/03/28 04:45:15;;;;;;;;;;;;;;;1.60;63.37;100407.59;5357210;32;34143;-68
2023/03/28 04:48:19;;;;;;;;;;;;;;;1.58;63.89;100403.28;5374899;32;35873;-67
2023/03/28 04:51:21;;;;;;;;;;;;;;;2.13;62.39;100409.16;5362541;32;34374;-68
2023/03/28 04:54:23;;;;;;;;;;;;;;;1.63;63.92;100417.97;5361746;32;36403;-61
2023/03/28 04:57:25;;;;;;;;;;;;;;;1.52;63.62;100414.53;5368116;32;34145;-68
2023/03/28 05:00:26;;;;;;;;;;;;;;;1.57;63.20;100397.25;5356802;32;34555;-69
2023/03/28 05:03:28;;;;;;;;;;;;;;;1.78;62.75;100429.16;5369904;32;34523;-70
2023/03/28 05:06:32;;;;;;;;;;;;;;;1.36;63.75;100418.00;5339430;32;34462;-68
2023/03/28 05:09:35;;;;;;;;;;;;;;;1.63;62.96;100427.47;5372878;32;34523;-69
2023/03/28 05:12:36;;;;;;;;;;;;;;;1.95;61.63;100422.19;5356742;32;34444;-68
2023/03/28 05:15:38;;;;;;;;;;;;;;;2.28;61.20;100425.50;5359715;32;45262;-70
2023/03/28 05:18:41;;;;;;;;;;;;;;;2.09;60.60;100425.59;5370801;32;34377;-69
2023/03/28 05:21:43;;;;;;;;;;;;;;;2.42;59.97;100413.31;5356070;32;34341;-61
2023/03/28 05:24:44;;;;;;;;;;;;;;;2.08;60.46;100438.56;5372109;32;34572;-66
2023/03/28 05:27:46;;;;;;;;;;;;;;;2.90;58.47;100429.47;5356089;32;34669;-67
2023/03/28 05:30:48;;;;;;;;;;;;;;;3.19;56.81;100439.63;5372707;32;35722;-61
2023/03/28 05:33:50;;;;;;;;;;;;;;;3.98;54.79;100446.63;5359698;32;34227;-68
2023/03/28 05:36:52;;;;;;;;;;;;;;;3.56;54.62;100447.09;5359440;32;35666;-68
2023/03/28 05:39:54;;;;;;;;;;;;;;;3.35;55.61;100459.41;5368419;32;34374;-69
2023/03/28 05:42:57;;;;;;;;;;;;;;;4.02;53.86;100460.50;5356232;32;34372;-61
2023/03/28 05:45:59;;;;;;;;;;;;;;;3.70;54.11;100460.81;5375521;32;33860;-60
2023/03/28 05:49:01;;;;;;;;;;;;;;;4.54;52.45;100455.50;5357598;32;34456;-61
2023/03/28 05:52:03;;;;;;;;;;;;;;;4.57;52.57;100467.59;5375012;32;34523;-60
2023/03/28 05:55:05;;;;;;;;;;;;;;;4.96;50.92;100476.63;5360737;32;34889;-72
2023/03/28 05:58:07;;;;;;;;;;;;;;;4.58;51.76;100469.34;5360420;32;36305;-73
2023/03/28 06:01:11;;;;;;;;;;;;;;;5.59;48.97;100457.34;5371138;32;44463;-63
2023/03/28 06:04:13;;;;;;;;;;;;;;;5.48;49.16;100475.81;5341547;32;34631;-64
2023/03/28 06:07:16;;;;;;;;;;;;;;;5.16;49.49;100484.13;5363316;32;34249;-65
2023/03/28 06:10:26;;;;;;;;;;;;;;;5.80;47.77;100487.44;5358574;32;35264;-72
2023/03/28 06:13:28;;;;;;;;;;;;;;;4.25;51.27;100489.72;5371431;32;34871;-62
2023/03/28 06:16:30;;;;;;;;;;;;;;;4.79;50.96;100515.91;5358456;32;34789;-74
2023/03/28 06:19:32;;;;;;;;;;;;;;;5.84;48.22;100508.19;5361437;32;34341;-60
2023/03/28 06:22:35;;;;;;;;;;;;;;;4.59;50.45;100524.00;5371522;32;34383;-70
2023/03/28 06:25:37;;;;;;;;;;;;;;;5.79;48.10;100517.84;5366408;32;35306;-63
2023/03/28 06:28:39;;;;;;;;;;;;;;;6.18;47.10;100512.81;5379087;32;44521;-86
2023/03/28 06:31:41;;;;;;;;;;;;;;;6.18;46.59;100521.53;5365344;32;35067;-61
2023/03/28 06:34:48;;;;;;;;;;;;;;;6.58;45.76;100525.97;5376620;32;34200;-74
2023/03/28 06:37:50;;;;;;;;;;;;;;;7.33;43.95;100514.69;5363763;32;34613;-72
2023/03/28 06:40:52;;;;;;;;;;;;;;;6.67;44.69;100533.59;5364861;32;35446;-63
2023/03/28 06:43:54;;;;;;;;;;;;;;;6.96;43.13;100533.00;5372000;32;34904;-80
2023/03/28 06:46:57;;;;;;;;;;;;;;;7.02;43.19;100538.09;5360166;32;34562;-77
2023/03/28 06:49:59;;;;;;;;;;;;;;;6.35;45.78;100542.06;5374419;32;34407;-64
2023/03/28 06:53:01;;;;;;;;;;;;;;;7.00;43.97;100547.69;5356969;32;35770;-66
2023/03/28 06:56:05;;;;;;;;;;;;;;;7.51;42.63;100549.16;5366310;32;35590;-67
2023/03/28 06:59:07;;;;;;;;;;;;;;;6.97;44.39;100560.84;5363197;32;35325;-66
2023/03/28 07:02:11;;;;;;;;;;;;;;;7.06;43.53;100544.94;5366146;32;44700;-67
2023/03/28 07:05:14;;;;;;;;;;;;;;;7.11;43.76;100563.13;5358339;32;36153;-80
2023/03/28 07:08:17;;;;;;;;;;;;;;;7.68;42.84;100548.75;5364433;32;34367;-78
2023/03/28 07:11:19;;;;;;;;;;;;;;;8.01;42.15;100553.13;5377690;32;34940;-63
2023/03/28 07:14:21;;;;;;;;;;;;;;;8.86;40.64;100543.81;5360786;32;35887;-71
2023/03/28 07:17:24;;;;;;;;;;;;;;;8.45;41.18;100558.13;5369498;32;34517;-72
2023/03/28 07:20:30;;;;;;;;;;;;;;;8.51;40.44;100557.94;5350572;32;35121;-70
2023/03/28 07:23:32;;;;;;;;;;;;;;;8.66;40.55;100540.03;5352105;32;35615;-68
2023/03/28 07:26:34;;;;;;;;;;;;;;;8.35;40.51;100544.38;5375153;32;34748;-60
2023/03/28 07:29:36;;;;;;;;;;;;;;;8.52;39.47;100550.03;5358815;32;35511;-62
2023/03/28 07:32:38;;;;;;;;;;;;;;;7.93;41.27;100541.16;5373921;32;45150;-66
2023/03/28 07:35:55;;;;;;;;;;;;;;;8.65;40.04;100548.78;5355957;32;35256;-72
2023/03/28 07:38:57;;;;;;;;;;;;;;;7.66;40.94;100556.63;5348734;32;36501;-72
2023/03/28 07:41:59;;;;;;;;;;;;;;;9.62;38.09;100546.69;5376955;32;34307;-71
2023/03/28 07:45:01;;;;;;;;;;;;;;;9.12;38.35;100569.25;5363210;32;34215;-68
2023/03/28 07:48:03;;;;;;;;;;;;;;;8.12;41.05;100558.94;5362829;32;36477;-61
2023/03/28 07:51:06;;;;;;;;;;;;;;;8.99;39.83;100557.44;5358408;32;34232;-71
2023/03/28 07:54:16;;;;;;;;;;;;;;;7.29;41.92;100580.19;5372468;32;44256;-73
2023/03/28 07:57:18;;;;;;;;;;;;;;;8.51;41.32;100573.66;5367673;32;36014;-62
2023/03/28 08:00:22;;;;;;;;;;;;;;;9.23;39.11;100568.03;5356497;32;35956;-82
2023/03/28 08:03:27;;;;;;;;;;;;;;;7.90;41.11;100570.00;5373075;32;35537;-61
2023/03/28 08:06:33;;;;;;;;;;;;;;;8.55;39.40;100568.28;5339946;32;35723;-66
2023/03/28 08:09:35;;;;;;;;;;;;;;;8.42;39.94;100572.13;5374888;32;33309;-66
2023/03/28 08:12:37;;;;;;;;;;;;;;;7.40;42.22;100567.69;5363629;32;34042;-69
2023/03/28 08:15:39;;;;;;;;;;;;;;;8.13;40.63;100568.53;5372418;32;46609;-66
2023/03/28 08:18:41;;;;;;;;;;;;;;;8.13;40.94;100568.53;5374747;32;34270;-67
2023/03/28 08:21:43;;;;;;;;;;;;;;;7.44;42.66;100576.34;5363952;32;34222;-62
2023/03/28 08:24:45;;;;;;;;;;;;;;;8.67;40.25;100574.94;5374726;32;34305;-63
2023/03/28 08:27:47;;;;;;;;;;;;;;;8.14;41.25;100574.62;5366101;32;34246;-66
2023/03/28 08:30:49;;;;;;;;;;;;;;;7.74;41.62;100570.38;5372222;32;34508;-70
2023/03/28 08:33:52;;;;;;;;;;;;;;;7.58;41.45;100582.09;5358832;32;35479;-63
2023/03/28 08:36:54;;;;;;;;;;;;;;;7.65;41.91;100575.81;5361050;32;34369;-64
2023/03/28 08:39:56;;;;;;;;;;;;;;;8.28;39.65;100571.63;5368630;32;34354;-62
2023/03/28 08:43:10;;;;;;;;;;;;;;;8.59;39.09;100569.06;5361785;32;34367;-76
2023/03/28 08:46:12;;;;;;;;;;;;;;;7.88;40.81;100560.44;5375363;32;44568;-76
2023/03/28 08:49:15;;;;;;;;;;;;;;;7.37;42.69;100564.31;5353851;32;34636;-69
2023/03/28 08:52:17;;;;;;;;;;;;;;;7.23;42.53;100596.00;5378406;32;35491;-73
2023/03/28 08:55:39;;;;;;;;;;;;;;;7.21;42.23;100566.41;5351622;32;35550;-69
2023/03/28 08:58:53;;;;;;;;;;;;;;;8.60;39.50;100562.91;5359892;32;44692;-65
2023/03/28 09:01:55;;;;;;;;;;;;;;;9.20;37.27;100556.78;5377917;32;37700;-64
2023/03/28 09:04:57;;;;;;;;;;;;;;;9.17;36.92;100517.53;5340875;32;34207;-68
2023/03/28 09:08:38;;;;;;;;;;;;;;;10.52;34.96;100537.50;5364655;32;35811;-74
2023/03/28 09:12:00;;;;;;;;;;;;;;;9.68;34.79;100541.25;5362395;32;44826;-75
2023/03/28 09:15:18;;;;;;;;;;;;;;;9.95;34.55;100543.84;5360789;32;35741;-66
2023/03/28 09:18:39;;;;;;;;;;;;;;;9.93;33.87;100551.78;5366848;32;36141;-67
2023/03/28 09:22:01;;;;;;;;;;;;;;;7.94;37.95;100558.56;5360231;32;44305;-66
2023/03/28 09:25:16;;;;;;;;;;;;;;;8.93;36.73;100547.97;5343941;32;45104;-69
2023/03/28 09:28:37;;;;;;;;;;;;;;;9.35;33.97;100539.72;5353191;32;35063;-66
2023/03/28 09:31:40;;;;;;;;;;;;;;;9.56;33.07;100535.53;5355603;32;45983;-66
2023/03/28 09:34:47;;;;;;;;;;;;;;;10.05;31.59;100571.53;5372384;32;35237;-68
2023/03/28 09:37:50;;;;;;;;;;;;;;;10.16;32.16;100548.38;5345557;32;34732;-71
2023/03/28 09:40:53;;;;;;;;;;;;;;;10.80;28.95;100555.72;5358795;32;34998;-71
2023/03/28 09:43:58;;;;;;;;;;;;;;;11.19;28.81;100553.34;5371288;32;34695;-81
2023/03/28 09:47:00;;;;;;;;;;;;;;;12.15;27.91;100557.34;5359859;32;35468;-70
2023/03/28 09:50:02;;;;;;;;;;;;;;;9.24;32.64;100561.03;5356731;32;34750;-63
2023/03/28 09:53:43;;;;;;;;;;;;;;;9.70;32.72;100551.69;5355730;32;44618;-69
2023/03/28 09:56:45;;;;;;;;;;;;;;;9.67;30.58;100570.19;5342399;32;44930;-67
2023/03/28 09:59:48;;;;;;;;;;;;;;;10.91;29.45;100566.72;5367028;32;34391;-63
2023/03/28 10:02:53;;;;;;;;;;;;;;;10.91;29.84;100561.47;5353326;32;35370;-71
2023/03/28 10:05:55;;;;;;;;;;;;;;;12.55;27.12;100558.22;5353913;32;36522;-69
2023/03/28 10:09:27;;;;;;;;;;;;;;;11.95;27.76;100559.13;5359064;32;35502;-73
2023/03/28 10:12:33;;;;;;;;;;;;;;;13.33;26.35;100562.59;5353823;32;34223;-64
2023/03/28 10:15:38;;;;;;;;;;;;;;;12.37;26.42;100577.53;5372157;32;35580;-65
2023/03/28 10:18:40;;;;;;;;;;;;;;;10.64;28.58;100562.50;5359188;32;44412;-67
2023/03/28 10:21:42;;;;;;;;;;;;;;;12.01;27.05;100543.91;5370331;32;34620;-75
2023/03/28 10:24:45;;;;;;;;;;;;;;;13.20;26.09;100537.66;5362340;32;37148;-66
2023/03/28 10:27:47;;;;;;;;;;;;;;;12.22;27.01;100534.22;5373070;32;34356;-65
2023/03/28 10:30:53;;;;;;;;;;;;;;;12.25;27.69;100557.81;5357786;32;36919;-67
2023/03/28 10:33:56;;;;;;;;;;;;;;;10.02;30.83;100551.47;5362322;32;36081;-63
2023/03/28 10:36:58;;;;;;;;;;;;;;;12.65;27.72;100545.50;5369501;32;36460;-67
2023/03/28 10:40:04;;;;;;;;;;;;;;;14.55;25.17;100524.72;5354978;32;36200;-68
2023/03/28 10:43:12;;;;;;;;;;;;;;;13.80;25.05;100551.50;5378365;32;34576;-70
2023/03/28 10:46:19;;;;;;;;;;;;;;;11.52;28.27;100526.62;5355020;32;44971;-63
2023/03/28 10:49:22;;;;;;;;;;;;;;;11.64;27.20;100561.19;5372038;32;34339;-73
2023/03/28 10:52:42;;;;;;;;;;;;;;;8.97;31.69;100567.13;5358786;32;34407;-69
2023/03/28 10:56:19;;;;;;;;;;;;;;;10.17;29.48;100550.06;5357996;32;45307;-71
2023/03/28 10:59:24;;;;;;;;;;;;;;;10.96;28.47;100570.03;5265255;32;34376;-79
2023/03/28 11:02:32;;;;;;;;;;;;;;;9.80;29.98;100566.25;5359905;32;35519;-77
2023/03/28 11:05:53;;;;;;;;;;;;;;;9.78;31.41;100563.63;5348840;32;34644;-63
2023/03/28 11:09:15;;;;;;;;;;;;;;;9.74;30.51;100569.06;5376381;32;35606;-65
2023/03/28 11:12:35;;;;;;;;;;;;;;;8.02;32.01;100570.53;5360941;32;34283;-71
2023/03/28 11:15:58;;;;;;;;;;;;;;;8.51;31.75;100564.03;5367613;32;36068;-67
2023/03/28 11:19:26;;;;;;;;;;;;;;;8.71;31.57;100553.00;5372229;32;34458;-66
2023/03/28 11:22:32;;;;;;;;;;;;;;;9.45;30.21;100573.47;5347695;32;34294;-65
2023/03/28 11:25:45;;;;;;;;;;;;;;;9.82;30.51;100560.94;5364469;32;35582;-70
2023/03/28 11:28:53;;;;;;;;;;;;;;;10.09;30.23;100570.50;5361380;32;44626;-67
2023/03/28 11:32:16;;;;;;;;;;;;;;;8.98;31.37;100559.19;5373153;32;33358;-62
2023/03/28 11:35:30;;;;;;;;;;;;;;;11.31;28.87;100552.03;5378117;32;44720;-63
2023/03/28 11:38:34;;;;;;;;;;;;;;;11.20;26.71;100552.44;5358710;32;35627;-61
2023/03/28 11:41:37;;;;;;;;;;;;;;;10.05;28.62;100558.41;5378398;32;34714;-62
2023/03/28 11:44:54;;;;;;;;;;;;;;;11.30;26.14;100552.94;5365254;32;44599;-61
2023/03/28 11:48:04;;;;;;;;;;;;;;;10.94;24.43;100569.22;5360438;32;34335;-74
2023/03/28 11:51:06;;;;;;;;;;;;;;;11.90;24.12;100554.03;5373536;32;34380;-65
2023/03/28 11:54:18;;;;;;;;;;;;;;;10.75;26.29;100561.16;5363428;32;46413;-73
2023/03/28 11:57:22;;;;;;;;;;;;;;;9.81;27.40;100567.94;5374769;32;34451;-70
2023/03/28 12:00:29;;;;;;;;;;;;;;;12.42;24.23;100563.19;5357101;32;35608;-66
2023/03/28 12:03:38;;;;;;;;;;;;;;;12.06;24.54;100572.69;5343979;32;36359;-66
2023/03/28 12:06:41;;;;;;;;;;;;;;;11.33;25.36;100555.44;5359578;32;44656;-65
2023/03/28 12:09:57;;;;;;;;;;;;;;;10.59;26.22;100570.53;5347424;32;34114;-69
2023/03/28 12:13:20;;;;;;;;;;;;;;;11.69;23.96;100563.66;5370578;32;34513;-67
2023/03/28 12:16:33;;;;;;;;;;;;;;;10.85;24.29;100570.44;5357399;32;34408;-63
2023/03/28 12:19:39;;;;;;;;;;;;;;;9.77;24.87;100577.69;5358201;32;34747;-67
2023/03/28 12:22:49;;;;;;;;;;;;;;;10.13;23.47;100590.50;5357434;32;44141;-67
2023/03/28 12:25:51;;;;;;;;;;;;;;;12.75;20.45;100567.88;5351100;32;34136;-69
2023/03/28 12:28:53;;;;;;;;;;;;;;;13.83;19.74;100549.56;5376089;32;34336;-68
2023/03/28 12:32:20;;;;;;;;;;;;;;;14.00;19.06;100572.50;5354622;32;34246;-65
2023/03/28 12:35:25;;;;;;;;;;;;;;;14.97;18.42;100549.81;5363734;32;32110;-65
2023/03/28 12:38:39;;;;;;;;;;;;;;;14.06;18.33;100566.91;5367852;32;35828;-67
2023/03/28 12:41:41;;;;;;;;;;;;;;;14.23;18.82;100586.31;5360540;32;44862;-72
2023/03/28 12:44:43;;;;;;;;;;;;;;;13.55;18.75;100562.41;5366157;32;35505;-64
2023/03/28 12:47:45;;;;;;;;;;;;;;;13.40;17.95;100574.59;5361163;32;34371;-62
2023/03/28 12:50:55;;;;;;;;;;;;;;;12.84;18.89;100567.47;5377052;32;35417;-72
2023/03/28 12:54:01;;;;;;;;;;;;;;;12.31;19.32;100581.28;5361010;32;34346;-68
2023/03/28 12:57:09;;;;;;;;;;;;;;;11.06;20.08;100584.53;5346319;32;35652;-63
2023/03/28 13:00:30;;;;;;;;;;;;;;;12.23;19.46;100585.13;5372317;32;47264;-75
2023/03/28 13:03:40;;;;;;;;;;;;;;;10.08;21.24;100576.66;5341438;32;34314;-66
2023/03/28 13:06:42;;;;;;;;;;;;;;;11.83;19.27;100576.28;5336601;32;45189;-68
2023/03/28 13:09:58;;;;;;;;;;;;;;;10.71;20.18;100592.87;5361573;32;37512;-67
2023/03/28 13:13:05;;;;;;;;;;;;;;;8.33;23.35;100604.66;5351565;32;35754;-65
2023/03/28 13:16:25;;;;;;;;;;;;;;;7.86;24.70;100617.19;5363935;32;35495;-63
2023/03/28 13:19:38;;;;;;;;;;;;;;;8.49;24.48;100631.31;5358689;32;34670;-74
2023/03/28 13:22:52;;;;;;;;;;;;;;;8.87;24.23;100625.03;5368059;32;45213;-64
2023/03/28 13:25:58;;;;;;;;;;;;;;;7.69;25.24;100627.19;5368092;32;34256;-64
2023/03/28 13:29:01;;;;;;;;;;;;;;;7.44;25.76;100629.50;5369552;32;35393;-69
2023/03/28 13:32:05;;;;;;;;;;;;;;;7.42;25.94;100622.59;5361768;32;35389;-62
2023/03/28 13:35:16;;;;;;;;;;;;;;;8.11;25.23;100638.41;5357240;32;34393;-68
2023/03/28 13:38:27;;;;;;;;;;;;;;;8.91;24.47;100644.16;5375554;32;46480;-68
2023/03/28 13:41:32;;;;;;;;;;;;;;;9.36;27.45;100680.47;5363471;32;34501;-79
2023/03/28 13:44:41;;;;;;;;;;;;;;;8.52;35.60;100667.94;5362495;32;35792;-67
2023/03/28 13:47:43;;;;;;;;;;;;;;;7.94;38.30;100703.38;5364513;32;46882;-60
2023/03/28 13:50:45;;;;;;;;;;;;;;;7.24;37.42;100728.44;5337978;32;34133;-70
2023/03/28 13:53:47;;;;;;;;;;;;;;;7.18;37.55;100713.72;5355184;32;34260;-73
2023/03/28 13:56:50;;;;;;;;;;;;;;;7.06;37.47;100714.81;5366058;32;35355;-74
2023/03/28 13:59:53;;;;;;;;;;;;;;;7.26;36.77;100718.78;5370807;32;35592;-79
2023/03/28 14:03:02;;;;;;;;;;;;;;;7.69;36.28;100710.91;5361536;32;34594;-62
2023/03/28 14:06:10;;;;;;;;;;;;;;;7.93;35.05;100725.22;5337393;32;34238;-73
2023/03/28 14:09:14;;;;;;;;;;;;;;;7.73;34.26;100712.56;5356315;32;959296;-68
2023/03/28 14:12:18;;;;;;;;;;;;;;;7.36;35.22;100719.47;5353215;32;20034;-61
2023/03/28 14:15:21;;;;;;;;;;;;;;;7.64;34.53;100714.53;5365252;32;33200;-73
2023/03/28 14:18:26;;;;;;;;;;;;;;;7.38;32.91;100729.00;5353213;32;33034;-61
2023/03/28 14:21:28;;;;;;;;;;;;;;;7.22;32.02;100717.16;5362700;32;32975;-72
2023/03/28 14:24:30;;;;;;;;;;;;;;;7.25;31.84;100722.31;5367440;32;34604;-62
2023/03/28 14:27:39;;;;;;;;;;;;;;;7.00;32.43;100728.00;5356008;32;33612;-60
2023/03/28 14:30:41;;;;;;;;;;;;;;;7.42;33.01;100715.00;5374635;32;44944;-60
2023/03/28 14:33:45;;;;;;;;;;;;;;;7.54;31.95;100733.03;5356618;32;34275;-61
2023/03/28 14:37:04;;;;;;;;;;;;;;;7.10;31.89;100738.31;5370460;32;32944;-71
2023/03/28 14:40:20;;;;;;;;;;;;;;;6.71;33.06;100741.63;5361706;32;33283;-61
2023/03/28 14:43:24;;;;;;;;;;;;;;;6.92;32.95;100732.53;5351356;32;33704;-61
2023/03/28 14:46:26;;;;;;;;;;;;;;;6.51;29.33;100722.81;5369897;32;33528;-63
2023/03/28 14:49:29;;;;;;;;;;;;;;;6.66;28.72;100734.75;5357882;32;33536;-61
2023/03/28 14:52:35;;;;;;;;;;;;;;;6.86;28.06;100737.84;5371085;32;33921;-61
2023/03/28 14:55:37;;;;;;;;;;;;;;;6.71;28.23;100740.75;5359801;32;33709;-61
2023/03/28 14:58:39;;;;;;;;;;;;;;;6.53;28.47;100761.97;5360981;32;44949;-74
2023/03/28 15:01:42;;;;;;;;;;;;;;;6.70;28.05;100746.88;5370451;32;35858;-61
2023/03/28 15:04:44;;;;;;;;;;;;;;;6.54;27.61;100733.19;5343588;32;33206;-73
2023/03/28 15:07:55;;;;;;;;;;;;;;;6.27;28.32;100744.97;5354778;32;34136;-62
2023/03/28 15:10:57;;;;;;;;;;;;;;;6.62;28.76;100765.25;5357430;32;34894;-74
2023/03/28 15:14:01;;;;;;;;;;;;;;;6.40;30.38;100754.31;5374139;32;33489;-73
2023/03/28 15:17:03;;;;;;;;;;;;;;;6.40;31.36;100764.78;5359456;32;33185;-61
2023/03/28 15:20:06;;;;;;;;;;;;;;;6.66;30.94;100768.72;5357814;32;33732;-73
2023/03/28 15:23:12;;;;;;;;;;;;;;;6.80;30.98;100764.09;5371409;32;33108;-75
2023/03/28 15:26:26;;;;;;;;;;;;;;;6.86;30.75;100764.00;5355938;32;44516;-63
2023/03/28 15:29:29;;;;;;;;;;;;;;;6.21;30.17;100768.56;5376078;32;34212;-64
2023/03/28 15:32:33;;;;;;;;;;;;;;;6.70;29.70;100776.47;5358246;32;34064;-73
2023/03/28 15:35:37;;;;;;;;;;;;;;;7.11;28.50;100774.88;5362996;32;33649;-74
2023/03/28 15:38:39;;;;;;;;;;;;;;;6.71;28.87;100767.75;5369914;32;46853;-61
2023/03/28 15:41:45;;;;;;;;;;;;;;;6.77;28.51;100782.44;5355466;32;33834;-74
2023/03/28 15:44:56;;;;;;;;;;;;;;;7.33;28.04;100785.75;5370477;32;35332;-73
2023/03/28 15:47:58;;;;;;;;;;;;;;;6.63;28.36;100800.09;5358676;32;34382;-74
2023/03/28 15:51:04;;;;;;;;;;;;;;;6.26;29.29;100802.44;5369587;32;32923;-62
2023/03/28 15:54:06;;;;;;;;;;;;;;;6.30;30.26;100807.56;5357392;32;31708;-61
2023/03/28 15:57:21;;;;;;;;;;;;;;;6.62;33.06;100814.91;5356270;32;44667;-62
2023/03/28 16:00:36;;;;;;;;;;;;;;;6.32;33.97;100826.69;5372813;32;32894;-74
2023/03/28 16:03:38;;;;;;;;;;;;;;;6.30;34.12;100832.81;5349585;32;36592;-61
2023/03/28 16:06:41;;;;;;;;;;;;;;;6.85;32.40;100835.44;5359050;32;33791;-61